Time;durP1;ratioP1;P1;durP2;ratioP2;P2;SDS_P1;SDS_P2;PMS_P1;PMS_P2;Temp;Humidity;BMP_temperature;BMP_pressure;BME280_temperature;BME280_humidity;BME280_pressure;Samples;Min_cycle;Max_cycle;Signal;HPM_P1;HPM_P2
2023/10/05 00:01:24;;;;;;;13.30;9.10;;;;;;;16.17;100.00;101363.73;109734;1250;59222;-72
2023/10/05 00:03:52;;;;;;;15.00;9.60;;;;;;;16.11;100.00;101369.58;109611;1250;73039;-72
2023/10/05 00:06:27;;;;;;;13.80;9.70;;;;;;;16.07;100.00;101378.39;109672;1250;62632;-73
2023/10/05 00:08:56;;;;;;;16.30;10.20;;;;;;;16.02;100.00;101381.91;109645;1250;72755;-74
2023/10/05 00:11:30;;;;;;;14.20;8.60;;;;;;;15.98;100.00;101382.22;109616;1250;61768;-75
2023/10/05 00:14:03;;;;;;;13.40;9.70;;;;;;;15.94;100.00;101380.50;109674;1250;60172;-74
2023/10/05 00:16:37;;;;;;;13.80;8.50;;;;;;;15.91;100.00;101379.16;109648;1250;73319;-74
2023/10/05 00:19:12;;;;;;;14.00;9.20;;;;;;;15.88;100.00;101372.83;109686;1250;62423;-74
2023/10/05 00:21:51;;;;;;;13.50;9.30;;;;;;;15.85;100.00;101379.39;109642;1250;72750;-74
2023/10/05 00:24:29;;;;;;;14.00;9.40;;;;;;;15.82;100.00;101378.52;109547;1250;61689;-74
2023/10/05 00:26:58;;;;;;;21.50;9.70;;;;;;;15.78;100.00;101375.13;109660;1250;59397;-75
2023/10/05 00:29:29;;;;;;;13.90;9.80;;;;;;;15.73;100.00;101369.30;109632;1250;73103;-74
2023/10/05 00:32:00;;;;;;;13.80;10.20;;;;;;;15.69;100.00;101361.97;109735;1250;64214;-74
2023/10/05 00:34:28;;;;;;;14.80;9.10;;;;;;;15.63;100.00;101362.90;109617;1250;72690;-74
2023/10/05 00:36:59;;;;;;;17.10;9.70;;;;;;;15.56;100.00;101366.55;109644;1250;61887;-74
2023/10/05 00:39:29;;;;;;;16.50;9.10;;;;;;;15.50;100.00;101365.89;109673;1250;60240;-74
2023/10/05 00:44:30;;;;;;;16.50;9.50;;;;;;;15.40;100.00;101366.91;109836;1250;63568;-73
2023/10/05 00:47:00;;;;;;;15.90;9.60;;;;;;;15.35;100.00;101370.62;109870;1253;71065;-75
2023/10/05 00:49:29;;;;;;;13.10;9.40;;;;;;;15.31;100.00;101374.81;109737;1253;60458;-74
2023/10/05 00:52:14;;;;;;;14.50;9.00;;;;;;;15.25;100.00;101371.30;109754;1253;58888;-72
2023/10/05 00:54:49;;;;;;;15.40;8.20;;;;;;;15.20;100.00;101368.33;109706;1253;71513;-73
2023/10/05 00:57:19;;;;;;;11.50;8.20;;;;;;;15.15;100.00;101367.96;109534;1254;62268;-73
2023/10/05 01:00:09;;;;;;;15.50;9.30;;;;;;;15.10;100.00;101368.48;109609;1253;71275;-73
2023/10/05 01:05:26;;;;;;;13.00;9.00;;;;;;;15.00;100.00;101357.86;109570;1253;58889;-74
2023/10/05 01:07:57;;;;;;;16.20;8.20;;;;;;;14.94;100.00;101353.11;109566;1254;71825;-73
2023/10/05 01:12:54;;;;;;;13.10;9.00;;;;;;;14.84;100.00;101364.37;109497;1253;75085;-73
2023/10/05 01:15:22;;;;;;;13.90;9.00;;;;;;;14.80;100.00;101369.02;109614;1254;60393;-73
2023/10/05 01:17:51;;;;;;;15.00;9.50;;;;;;;14.75;100.00;101365.13;109539;1254;58818;-73
2023/10/05 01:22:47;;;;;;;18.00;10.20;;;;;;;14.66;100.00;101359.92;109380;1254;63603;-74
2023/10/05 01:25:14;;;;;;;18.40;9.40;;;;;;;14.61;100.00;101359.20;109379;1253;71477;-73
2023/10/05 01:27:43;;;;;;;13.00;8.70;;;;;;;14.55;100.00;101353.92;109451;1254;61825;-73
2023/10/05 01:30:14;;;;;;;15.50;9.90;;;;;;;14.50;100.00;101353.70;109521;1254;59930;-74
2023/10/05 01:32:41;;;;;;;15.60;9.60;;;;;;;14.44;100.00;101356.17;109482;1254;72199;-74
2023/10/05 01:35:12;;;;;;;13.90;9.70;;;;;;;14.39;100.00;101360.96;109491;1253;63773;-74
2023/10/05 01:37:40;;;;;;;19.80;10.80;;;;;;;14.31;100.00;101371.26;109506;1253;72612;-74
2023/10/05 01:40:25;;;;;;;15.30;9.90;;;;;;;14.23;100.00;101380.35;109349;1254;61676;-73
2023/10/05 01:42:53;;;;;;;17.80;10.30;;;;;;;14.14;100.00;101386.58;109466;1253;60463;-74
2023/10/05 01:45:29;;;;;;;20.10;10.80;;;;;;;14.07;100.00;101388.26;109467;1253;74048;-74
2023/10/05 01:48:02;;;;;;;19.90;10.20;;;;;;;14.02;100.00;101391.75;109270;1253;63558;-73
2023/10/05 01:50:32;;;;;;;15.00;9.30;;;;;;;13.98;100.00;101389.52;109462;1254;72702;-73
2023/10/05 01:55:40;;;;;;;16.70;9.40;;;;;;;13.90;100.00;101390.70;109532;1253;60054;-73
2023/10/05 01:58:08;;;;;;;16.00;9.30;;;;;;;13.87;100.00;101394.77;109410;1253;73048;-75
2023/10/05 02:00:38;;;;;;;13.90;9.30;;;;;;;13.83;100.00;101398.86;109396;1253;61683;-74
2023/10/05 02:03:10;;;;;;;20.80;11.00;;;;;;;13.80;100.00;101403.46;109354;1253;71417;-74
2023/10/05 02:05:38;;;;;;;12.80;9.30;;;;;;;13.78;100.00;101401.31;109473;1254;61632;-74
2023/10/05 02:08:06;;;;;;;13.90;9.40;;;;;;;13.75;100.00;101400.97;109422;1253;58772;-75
2023/10/05 02:10:34;;;;;;;13.30;9.70;;;;;;;13.72;100.00;101407.61;109363;1253;72623;-73
2023/10/05 02:13:02;;;;;;;19.40;9.30;;;;;;;13.71;100.00;101405.08;109466;1254;62268;-73
2023/10/05 02:15:29;;;;;;;20.30;9.90;;;;;;;13.67;100.00;101400.35;109424;1258;72614;-73
2023/10/05 02:18:13;;;;;;;11.90;8.20;;;;;;;13.64;100.00;101392.10;109421;1253;59644;-74
2023/10/05 02:20:43;;;;;;;15.30;9.50;;;;;;;13.61;100.00;101392.98;109485;1253;60077;-74
2023/10/05 02:23:47;;;;;;;15.30;9.90;;;;;;;13.58;100.00;101393.02;109381;1254;72608;-73
2023/10/05 02:26:10;;;;;;;15.30;10.80;;;;;;;13.55;100.00;101401.62;109431;1253;62413;-73
2023/10/05 02:28:39;;;;;;;16.30;8.40;;;;;;;13.54;100.00;101404.35;109504;1253;72621;-73
2023/10/05 02:31:12;;;;;;;16.70;9.20;;;;;;;13.51;100.00;101406.44;109453;1253;63906;-73
2023/10/05 02:33:43;;;;;;;11.70;9.30;;;;;;;13.46;100.00;101402.83;109474;1253;60402;-73
2023/10/05 02:36:20;;;;;;;15.90;9.70;;;;;;;13.42;100.00;101406.07;109375;1253;72618;-73
2023/10/05 02:38:49;;;;;;;14.60;9.10;;;;;;;13.38;100.00;101412.82;109457;1254;62402;-73
2023/10/05 02:41:24;;;;;;;13.60;9.40;;;;;;;13.33;100.00;101410.31;109361;1257;72681;-74
2023/10/05 02:43:53;;;;;;;12.50;8.70;;;;;;;13.27;100.00;101410.08;109474;1254;60418;-73
2023/10/05 02:46:24;;;;;;;15.70;9.60;;;;;;;13.24;100.00;101412.58;109382;1253;59988;-73
2023/10/05 02:48:51;;;;;;;15.00;10.10;;;;;;;13.21;100.00;101416.25;109389;1254;72388;-74
2023/10/05 02:51:20;;;;;;;16.20;9.70;;;;;;;13.18;100.00;101417.31;109292;1253;63115;-73
2023/10/05 02:53:47;;;;;;;14.30;10.00;;;;;;;13.16;100.00;101419.20;109454;1254;72880;-74
2023/10/05 02:56:28;;;;;;;14.80;11.10;;;;;;;13.12;100.00;101420.80;109387;1254;60447;-71
2023/10/05 02:58:56;;;;;;;18.60;10.50;;;;;;;13.10;100.00;101421.48;109466;1253;59726;-73
2023/10/05 03:01:24;;;;;;;23.50;11.70;;;;;;;13.09;100.00;101426.45;109373;1257;73866;-73
2023/10/05 03:03:51;;;;;;;14.90;9.90;;;;;;;13.06;100.00;101427.98;109411;1253;62421;-73
2023/10/05 03:06:22;;;;;;;12.50;10.00;;;;;;;13.04;100.00;101433.75;109437;1253;72716;-74
2023/10/05 03:08:54;;;;;;;17.40;10.90;;;;;;;13.02;100.00;101438.57;109440;1253;61730;-74
2023/10/05 03:11:25;;;;;;;13.00;9.80;;;;;;;13.01;100.00;101440.76;109502;1253;59399;-75
2023/10/05 03:13:53;;;;;;;14.30;10.40;;;;;;;12.99;100.00;101439.26;109362;1257;74079;-73
2023/10/05 03:16:21;;;;;;;22.80;11.30;;;;;;;12.96;100.00;101442.94;109407;1253;63543;-74
2023/10/05 03:18:49;;;;;;;22.30;12.30;;;;;;;12.94;100.00;101435.01;109392;1254;72476;-74
2023/10/05 03:21:18;;;;;;;26.30;11.50;;;;;;;12.93;100.00;101435.80;109460;1253;61675;-75
2023/10/05 03:23:45;;;;;;;17.70;12.30;;;;;;;12.91;100.00;101433.92;109502;1253;58772;-74
2023/10/05 03:26:16;;;;;;;18.00;11.80;;;;;;;12.90;100.00;101436.83;109468;1253;73730;-74
2023/10/05 03:28:43;;;;;;;22.80;12.50;;;;;;;12.88;100.00;101441.30;109400;1253;62640;-74
2023/10/05 03:31:19;;;;;;;16.00;11.50;;;;;;;12.85;100.00;101442.70;109471;1254;72985;-74
2023/10/05 03:33:51;;;;;;;15.00;10.90;;;;;;;12.83;100.00;101445.30;109368;1253;60462;-74
2023/10/05 03:36:19;;;;;;;21.00;12.30;;;;;;;12.79;100.00;101446.02;109368;1253;60228;-75
2023/10/05 03:38:56;;;;;;;17.90;11.10;;;;;;;12.77;100.00;101441.23;109455;1253;73934;-74
2023/10/05 03:41:28;;;;;;;20.30;12.50;;;;;;;12.72;100.00;101441.64;109453;1254;63575;-75
2023/10/05 03:43:56;;;;;;;20.50;12.50;;;;;;;12.69;100.00;101443.25;109503;1253;72712;-73
2023/10/05 03:46:25;;;;;;;17.90;11.80;;;;;;;12.67;100.00;101446.67;109468;1254;60423;-75
2023/10/05 03:48:59;;;;;;;19.70;12.10;;;;;;;12.65;100.00;101443.79;109503;1254;60145;-74
2023/10/05 03:51:28;;;;;;;25.70;11.40;;;;;;;12.64;100.00;101442.66;109439;1253;73817;-73
2023/10/05 03:53:56;;;;;;;27.50;11.80;;;;;;;12.62;100.00;101447.63;109354;1253;62390;-75
2023/10/05 03:56:27;;;;;;;24.20;12.60;;;;;;;12.62;100.00;101453.83;109477;1253;71198;-75
2023/10/05 03:58:54;;;;;;;25.40;13.60;;;;;;;12.61;100.00;101461.40;109416;1254;61763;-74
2023/10/05 04:01:22;;;;;;;20.90;13.40;;;;;;;12.60;100.00;101461.63;109528;1253;59108;-72
2023/10/05 04:03:50;;;;;;;22.30;13.80;;;;;;;12.58;100.00;101457.52;109488;1253;72612;-74
2023/10/05 04:06:23;;;;;;;23.20;14.50;;;;;;;12.57;100.00;101450.54;109367;1254;62474;-71
2023/10/05 04:08:55;;;;;;;21.30;13.00;;;;;;;12.56;100.00;101448.52;109341;1253;71453;-74
2023/10/05 04:11:26;;;;;;;22.90;12.80;;;;;;;12.55;100.00;101450.51;109473;1254;61528;-74
2023/10/05 04:16:51;;;;;;;20.70;11.90;;;;;;;12.54;100.00;101457.59;109369;1253;73881;-74
2023/10/05 04:19:19;;;;;;;17.40;13.00;;;;;;;12.54;100.00;101457.39;109500;1254;63622;-73
2023/10/05 04:21:47;;;;;;;18.80;12.70;;;;;;;12.57;100.00;101458.29;109510;1254;72435;-74
2023/10/05 04:24:16;;;;;;;19.90;12.20;;;;;;;12.61;100.00;101464.35;109459;1254;60395;-74
2023/10/05 04:26:45;;;;;;;18.80;13.00;;;;;;;12.67;100.00;101468.82;109482;1253;60672;-73
2023/10/05 04:29:12;;;;;;;21.80;12.90;;;;;;;12.75;100.00;101479.43;109463;1253;74240;-72
2023/10/05 04:31:40;;;;;;;43.60;14.20;;;;;;;12.84;100.00;101478.20;109461;1254;66055;-71
2023/10/05 04:34:30;;;;;;;37.20;13.40;;;;;;;12.96;100.00;101486.48;109471;1253;72301;-74
2023/10/05 04:36:55;;;;;;;23.60;12.20;;;;;;;13.12;100.00;101494.19;109451;1254;60982;-73
2023/10/05 04:39:28;;;;;;;25.10;13.50;;;;;;;13.25;100.00;101495.38;109520;1253;58648;-74
2023/10/05 04:42:10;;;;;;;19.10;11.00;;;;;;;13.39;100.00;101492.88;109468;1253;73954;-74
2023/10/05 04:44:40;;;;;;;19.30;11.80;;;;;;;13.52;100.00;101495.28;109509;1253;62744;-73
2023/10/05 04:47:09;;;;;;;16.80;11.50;;;;;;;13.61;100.00;101498.23;109463;1253;72578;-73
2023/10/05 04:49:37;;;;;;;20.90;11.20;;;;;;;13.71;100.00;101495.55;109441;1254;60392;-73
2023/10/05 04:52:33;;;;;;;21.70;11.50;;;;;;;13.80;100.00;101493.08;109462;1256;58701;-75
2023/10/05 04:55:17;;;;;;;23.30;10.50;;;;;;;13.91;100.00;101501.08;109476;1254;73920;-73
2023/10/05 04:58:14;;;;;;;16.20;10.90;;;;;;;14.00;100.00;101497.73;109472;1253;62385;-73
2023/10/05 05:06:00;;;;;;;13.40;10.10;;;;;;;14.25;100.00;101509.19;109486;1253;61022;-72
2023/10/05 05:08:31;;;;;;;18.00;10.30;;;;;;;14.33;100.00;101509.95;109443;1254;73939;-73
2023/10/05 05:10:59;;;;;;;14.40;9.00;;;;;;;14.40;100.00;101506.16;109469;1254;64137;-74
2023/10/05 05:13:29;;;;;;;16.40;10.20;;;;;;;14.49;100.00;101510.02;109456;1253;71894;-73
2023/10/05 05:15:57;;;;;;;24.10;9.80;;;;;;;14.58;100.00;101510.39;109437;1253;63168;-73
2023/10/05 05:18:24;;;;;;;17.50;9.20;;;;;;;14.65;100.00;101510.64;109472;1253;60408;-74
2023/10/05 05:20:53;;;;;;;70.30;11.10;;;;;;;14.70;100.00;101513.30;109454;1253;74268;-73
2023/10/05 05:23:21;;;;;;;19.90;8.30;;;;;;;14.75;100.00;101517.23;109506;1254;64308;-72
2023/10/05 05:25:51;;;;;;;18.30;9.30;;;;;;;14.80;100.00;101519.73;109192;1253;74855;-73
2023/10/05 05:28:19;;;;;;;14.10;8.40;;;;;;;14.84;100.00;101516.14;109464;1253;62657;-74
2023/10/05 05:30:47;;;;;;;12.80;8.10;;;;;;;14.88;100.00;101519.18;109482;1253;58646;-73
2023/10/05 05:33:17;;;;;;;14.20;8.80;;;;;;;15.05;100.00;101518.98;109445;1254;72880;-73
2023/10/05 05:35:49;;;;;;;15.30;8.00;;;;;;;15.47;100.00;101522.93;109473;1253;62191;-74
2023/10/05 05:38:18;;;;;;;12.90;7.80;;;;;;;16.06;100.00;101524.31;109465;1254;72644;-74
2023/10/05 05:40:48;;;;;;;10.70;7.40;;;;;;;16.55;100.00;101527.41;109440;1254;61516;-74
2023/10/05 05:43:17;;;;;;;15.70;7.80;;;;;;;16.77;100.00;101536.50;109512;1254;58962;-74
2023/10/05 05:45:44;;;;;;;10.80;7.60;;;;;;;17.00;100.00;101538.89;109478;1253;73631;-74
2023/10/05 05:48:15;;;;;;;12.20;7.10;;;;;;;17.38;100.00;101535.06;109475;1253;64757;-74
2023/10/05 05:50:43;;;;;;;14.10;7.50;;;;;;;17.93;100.00;101543.54;109530;1254;73305;-73
2023/10/05 05:53:11;;;;;;;12.70;7.80;;;;;;;18.59;100.00;101546.41;109388;1254;60202;-74
2023/10/05 05:55:52;;;;;;;11.50;6.40;;;;;;;19.30;100.00;101548.98;109523;1253;59220;-74
2023/10/05 05:58:20;;;;;;;16.20;6.60;;;;;;;20.11;100.00;101546.19;109471;1253;72388;-76
2023/10/05 06:00:52;;;;;;;10.70;6.90;;;;;;;20.79;100.00;101550.92;109487;1253;63633;-75
2023/10/05 06:03:20;;;;;;;10.60;7.10;;;;;;;21.51;100.00;101549.17;109459;1254;71265;-74
2023/10/05 06:05:48;;;;;;;10.50;6.70;;;;;;;22.16;98.58;101548.06;109434;1254;62202;-73
2023/10/05 06:08:16;;;;;;;13.90;6.70;;;;;;;22.73;92.50;101544.12;109491;1253;61127;-74
2023/10/05 06:10:46;;;;;;;10.00;7.10;;;;;;;23.23;85.20;101544.02;109442;1253;73877;-75
2023/10/05 06:13:16;;;;;;;14.00;6.60;;;;;;;23.78;78.18;101544.08;109506;1253;63261;-73
2023/10/05 06:15:45;;;;;;;12.10;6.00;;;;;;;24.31;71.46;101545.30;109451;1254;72514;-74
2023/10/05 06:18:14;;;;;;;12.30;5.90;;;;;;;24.79;65.34;101554.92;109431;1257;59971;-76
2023/10/05 06:20:43;;;;;;;9.90;6.30;;;;;;;25.15;60.68;101561.02;109545;1253;60587;-73
2023/10/05 06:23:11;;;;;;;10.90;6.10;;;;;;;25.54;57.90;101560.13;109484;1254;74808;-73
2023/10/05 06:25:39;;;;;;;10.50;6.10;;;;;;;25.86;54.41;101556.01;109483;1254;64466;-74
2023/10/05 06:28:08;;;;;;;10.40;5.60;;;;;;;26.07;51.88;101559.02;109340;1253;73142;-74
2023/10/05 06:30:36;;;;;;;19.30;7.30;;;;;;;26.22;48.89;101557.20;109426;1254;60026;-74
2023/10/05 06:33:07;;;;;;;12.50;5.80;;;;;;;26.32;48.51;101556.36;109323;1254;61632;-74
2023/10/05 06:35:36;;;;;;;11.90;6.40;;;;;;;26.52;46.73;101558.66;109465;1253;74879;-73
2023/10/05 06:38:03;;;;;;;11.20;5.90;;;;;;;26.67;46.33;101560.16;109531;1254;63893;-74
2023/10/05 06:40:33;;;;;;;9.80;6.00;;;;;;;26.93;45.43;101560.44;109468;1254;73935;-73
2023/10/05 06:43:01;;;;;;;9.00;5.80;;;;;;;26.98;44.52;101561.92;109469;1254;61545;-74
2023/10/05 06:45:29;;;;;;;8.10;6.10;;;;;;;26.76;44.46;101564.43;109494;1254;59834;-74
2023/10/05 06:47:56;;;;;;;10.70;5.60;;;;;;;26.64;44.60;101568.82;109456;1253;73788;-74
2023/10/05 06:50:24;;;;;;;13.60;5.90;;;;;;;26.64;43.91;101570.55;109505;1259;64029;-78
2023/10/05 06:52:52;;;;;;;6.10;4.10;;;;;;;26.73;44.11;101569.80;109458;1254;73774;-76
2023/10/05 06:55:21;;;;;;;12.00;5.70;;;;;;;26.93;43.94;101566.73;109408;1254;61703;-76
2023/10/05 06:57:50;;;;;;;10.60;6.00;;;;;;;27.15;43.30;101569.59;109512;1253;59944;-74
2023/10/05 07:00:21;;;;;;;6.20;5.30;;;;;;;27.41;41.87;101575.21;109486;1253;75915;-73
2023/10/05 07:02:49;;;;;;;9.40;5.00;;;;;;;27.62;41.36;101571.17;109382;1254;62621;-74
2023/10/05 07:05:17;;;;;;;9.80;5.00;;;;;;;27.76;40.24;101562.50;109456;1253;73598;-72
2023/10/05 07:07:45;;;;;;;10.60;6.10;;;;;;;27.58;39.92;101572.12;109448;1254;58789;-73
2023/10/05 07:10:14;;;;;;;9.20;5.00;;;;;;;27.39;39.97;101578.53;109392;1254;59052;-73
2023/10/05 07:12:46;;;;;;;8.60;5.40;;;;;;;27.12;40.38;101579.86;109501;1253;73969;-74
2023/10/05 07:15:21;;;;;;;7.40;4.30;;;;;;;26.93;40.46;101577.84;109487;1254;62627;-73
2023/10/05 07:17:49;;;;;;;7.10;5.40;;;;;;;26.88;40.63;101583.32;109487;1254;71228;-73
2023/10/05 07:20:17;;;;;;;9.50;5.30;;;;;;;26.98;40.65;101582.89;109451;1253;60547;-72
2023/10/05 07:22:46;;;;;;;6.60;4.30;;;;;;;27.13;40.76;101584.39;109509;1253;61042;-73
2023/10/05 07:25:14;;;;;;;12.60;4.80;;;;;;;27.24;40.07;101581.36;109488;1254;75504;-74
2023/10/05 07:27:42;;;;;;;9.20;4.60;;;;;;;27.10;39.91;101583.70;109477;1254;62839;-74
2023/10/05 07:30:13;;;;;;;6.30;4.30;;;;;;;26.81;40.01;101584.69;109466;1254;72408;-73
2023/10/05 07:32:41;;;;;;;8.30;4.40;;;;;;;26.52;40.24;101585.30;109463;1254;59682;-74
2023/10/05 07:35:09;;;;;;;6.00;3.90;;;;;;;26.48;40.93;101583.45;109459;1259;59385;-73
2023/10/05 07:37:37;;;;;;;5.80;3.70;;;;;;;26.48;41.30;101584.52;109368;1253;73942;-73
2023/10/05 07:40:08;;;;;;;7.40;4.00;;;;;;;26.55;40.95;101584.71;109501;1253;64275;-75
2023/10/05 07:42:39;;;;;;;9.50;3.60;;;;;;;26.75;39.78;101583.74;109447;1259;74862;-74
2023/10/05 07:45:07;;;;;;;6.20;3.40;;;;;;;27.08;39.03;101576.64;109455;1253;60995;-75
2023/10/05 07:47:44;;;;;;;4.10;2.80;;;;;;;27.54;37.68;101576.05;109450;1254;62309;-74
2023/10/05 07:50:11;;;;;;;7.50;3.00;;;;;;;28.00;36.39;101573.48;109457;1259;74768;-74
2023/10/05 07:52:42;;;;;;;5.30;3.30;;;;;;;28.37;35.73;101577.48;109512;1254;63360;-73
2023/10/05 07:55:09;;;;;;;5.80;3.20;;;;;;;28.81;35.13;101580.58;109478;1254;72384;-74
2023/10/05 07:57:37;;;;;;;5.50;2.90;;;;;;;29.25;34.55;101580.39;109468;1254;59498;-74
2023/10/05 08:00:11;;;;;;;5.30;3.60;;;;;;;29.65;33.49;101584.90;109476;1253;60024;-73
2023/10/05 08:02:43;;;;;;;6.70;3.50;;;;;;;29.73;32.29;101588.11;109460;1254;74004;-77
2023/10/05 08:05:14;;;;;;;5.70;2.50;;;;;;;29.75;31.81;101586.45;109478;1254;62373;-78
2023/10/05 08:07:44;;;;;;;5.20;3.40;;;;;;;29.77;31.54;101583.98;109458;1254;73663;-73
2023/10/05 08:10:18;;;;;;;3.40;2.70;;;;;;;30.00;31.24;101584.52;109440;1254;60568;-76
2023/10/05 08:12:49;;;;;;;8.60;2.90;;;;;;;30.31;30.83;101582.54;109360;1254;59261;-75
2023/10/05 08:15:20;;;;;;;6.10;2.50;;;;;;;30.53;30.18;101578.21;109490;1254;73394;-78
2023/10/05 08:17:48;;;;;;;8.90;2.50;;;;;;;30.60;29.43;101576.34;109517;1253;64927;-74
2023/10/05 08:20:17;;;;;;;7.80;2.50;;;;;;;30.75;29.14;101569.90;109441;1254;71504;-73
2023/10/05 08:22:51;;;;;;;2.90;2.30;;;;;;;30.85;28.29;101570.41;109435;1255;58338;-77
2023/10/05 08:25:19;;;;;;;6.40;2.10;;;;;;;30.90;28.19;101573.27;109326;1254;62550;-74
2023/10/05 08:27:48;;;;;;;6.40;2.20;;;;;;;30.91;27.71;101567.61;109479;1254;74289;-75
2023/10/05 08:30:16;;;;;;;6.70;2.60;;;;;;;30.95;27.96;101567.86;109554;1254;62712;-80
2023/10/05 08:32:47;;;;;;;6.00;2.10;;;;;;;31.11;27.85;101569.11;109503;1255;72716;-77
2023/10/05 08:35:18;;;;;;;4.70;2.30;;;;;;;31.35;27.28;101575.13;109455;1254;58413;-75
2023/10/05 08:37:50;;;;;;;6.70;2.00;;;;;;;31.54;26.27;101573.67;109489;1258;58777;-78
2023/10/05 08:43:08;;;;;;;2.40;1.50;;;;;;;31.84;26.26;101571.02;109459;1254;64400;-76
2023/10/05 08:45:38;;;;;;;4.70;1.70;;;;;;;32.07;26.33;101565.73;109491;1257;74773;-74
2023/10/05 08:48:08;;;;;;;4.30;1.80;;;;;;;32.28;25.98;101565.72;109499;1253;59595;-75
2023/10/05 08:50:36;;;;;;;4.10;1.70;;;;;;;32.37;25.50;101566.11;109342;1254;59275;-74
2023/10/05 08:53:12;;;;;;;5.10;2.10;;;;;;;32.53;25.47;101568.08;109479;1255;73454;-74
2023/10/05 08:55:40;;;;;;;2.00;1.20;;;;;;;32.59;24.70;101564.36;109536;1254;65498;-79
2023/10/05 08:58:09;;;;;;;4.00;1.70;;;;;;;32.52;24.28;101562.36;109349;1255;71663;-79
2023/10/05 09:00:40;;;;;;;2.80;1.70;;;;;;;32.52;24.37;101554.67;109350;1254;60458;-74
2023/10/05 09:03:28;;;;;;;2.30;1.60;;;;;;;32.59;24.28;101553.77;109496;1254;60952;-74
2023/10/05 09:06:30;;;;;;;5.90;1.70;;;;;;;32.80;23.79;101548.37;102748;1293;600196;-80
2023/10/05 09:09:07;;;;;;;7.70;1.80;;;;;;;32.67;23.66;101547.90;104868;1275;61962;-80
2023/10/05 09:11:35;;;;;;;4.30;1.50;;;;;;;32.45;23.71;101549.20;104746;1266;61552;-78
2023/10/05 09:14:14;;;;;;;2.30;1.50;;;;;;;32.32;24.03;101542.14;104844;1267;73583;-78
2023/10/05 09:16:43;;;;;;;2.00;1.30;;;;;;;32.32;24.39;101542.95;104961;1271;63379;-75
2023/10/05 09:19:15;;;;;;;2.10;1.50;;;;;;;32.43;24.27;101541.77;104801;1272;206865;-78
2023/10/05 09:21:44;;;;;;;4.50;2.10;;;;;;;32.53;23.83;101534.15;105003;1269;59276;-76
2023/10/05 09:24:22;;;;;;;5.00;2.40;;;;;;;32.62;24.05;101533.83;104991;1268;59330;-79
2023/10/05 09:26:52;;;;;;;3.80;1.40;;;;;;;32.78;24.16;101536.64;105009;1263;73092;-76
2023/10/05 09:29:28;;;;;;;4.80;2.20;;;;;;;32.84;23.85;101529.11;104993;1263;62738;-77
2023/10/05 09:31:57;;;;;;;2.50;1.60;;;;;;;32.91;23.62;101531.41;105012;1264;74087;-77
2023/10/05 09:34:36;;;;;;;3.80;1.50;;;;;;;33.12;23.53;101531.18;105212;1264;62397;-78
2023/10/05 09:37:05;;;;;;;5.30;1.50;;;;;;;33.20;23.03;101534.14;104945;1263;61149;-77
2023/10/05 09:39:44;;;;;;;4.50;1.90;;;;;;;33.12;23.24;101531.02;104951;1263;74563;-76
2023/10/05 09:42:27;;;;;;;7.60;1.90;;;;;;;33.09;23.07;101527.40;105695;1260;63817;-74
2023/10/05 09:44:59;;;;;;;3.70;1.60;;;;;;;33.10;23.06;101518.62;105423;1262;72367;-80
2023/10/05 09:47:32;;;;;;;2.30;1.70;;;;;;;33.11;23.00;101515.02;105481;1257;61813;-78
2023/10/05 09:50:09;;;;;;;2.00;1.50;;;;;;;33.21;23.15;101514.48;105361;1261;61253;-77
2023/10/05 09:52:43;;;;;;;3.10;1.90;;;;;;;33.45;23.14;101513.36;109277;1257;75314;-77
2023/10/05 09:55:12;;;;;;;4.00;2.00;;;;;;;33.57;22.89;101514.48;109180;1256;65069;-79
2023/10/05 09:57:46;;;;;;;2.30;1.60;;;;;;;33.54;22.49;101507.55;109243;1257;74651;-75
2023/10/05 10:03:02;;;;;;;10.00;2.00;;;;;;;33.69;22.44;101503.04;109225;1256;60187;-78
2023/10/05 10:05:36;;;;;;;2.90;1.70;;;;;;;33.69;22.46;101503.63;109259;1255;75526;-78
2023/10/05 10:08:13;;;;;;;2.90;1.70;;;;;;;33.66;22.73;101507.14;109104;1257;64379;-74
2023/10/05 10:10:43;;;;;;;5.90;1.40;;;;;;;33.42;22.48;101504.60;109238;1255;75485;-74
2023/10/05 10:13:11;;;;;;;3.80;1.80;;;;;;;33.26;22.93;101497.36;109115;1256;61142;-75
2023/10/05 10:15:39;;;;;;;4.30;1.10;;;;;;;33.30;23.32;101497.38;109388;1257;60419;-78
2023/10/05 10:18:14;;;;;;;2.80;1.40;;;;;;;33.24;23.08;101500.73;109193;1257;74518;-77
2023/10/05 10:20:48;;;;;;;2.60;1.30;;;;;;;33.17;22.99;101499.27;109218;1256;63573;-76
2023/10/05 10:23:22;;;;;;;3.70;1.20;;;;;;;33.17;22.68;101501.58;109159;1257;72822;-77
2023/10/05 10:25:50;;;;;;;4.10;1.50;;;;;;;32.99;22.39;101503.23;109163;1256;61165;-75
2023/10/05 10:28:39;;;;;;;1.90;1.60;;;;;;;32.84;22.80;101502.86;109171;1257;60302;-75
2023/10/05 10:31:18;;;;;;;3.90;1.10;;;;;;;32.77;22.80;101510.06;109280;1255;74396;-76
2023/10/05 10:33:51;;;;;;;3.20;2.10;;;;;;;32.67;23.13;101506.45;109286;1257;62737;-74
2023/10/05 10:36:38;;;;;;;2.70;2.20;;;;;;;32.66;23.18;101501.21;109284;1257;74092;-75
2023/10/05 10:39:22;;;;;;;5.50;2.00;;;;;;;32.87;22.99;101496.33;109180;1256;62082;-74
2023/10/05 10:42:03;;;;;;;2.60;1.40;;;;;;;33.02;22.79;101502.08;109437;1257;60345;-77
2023/10/05 10:44:47;;;;;;;2.30;1.60;;;;;;;33.09;22.97;101502.02;109288;1256;72637;-75
2023/10/05 10:47:15;;;;;;;1.90;1.40;;;;;;;32.84;22.48;101501.27;109451;1256;62079;-75
2023/10/05 10:50:14;;;;;;;3.10;1.50;;;;;;;32.41;22.94;101498.17;109271;1256;72501;-78
2023/10/05 10:52:45;;;;;;;4.40;1.50;;;;;;;32.14;23.79;101500.95;109292;1257;58770;-76
2023/10/05 10:55:14;;;;;;;4.60;1.30;;;;;;;31.92;23.80;101500.81;109328;1256;59092;-73
2023/10/05 10:57:53;;;;;;;5.00;1.40;;;;;;;31.72;24.02;101496.98;109195;1256;74070;-74
2023/10/05 11:03:11;;;;;;;4.70;1.70;;;;;;;31.14;24.39;101501.20;109427;1254;73678;-75
2023/10/05 11:05:52;;;;;;;2.30;0.90;;;;;;;30.85;24.35;101504.32;109410;1256;58940;-76
2023/10/05 11:08:22;;;;;;;8.30;1.50;;;;;;;30.53;24.03;101498.57;109336;1256;60004;-74
2023/10/05 11:11:06;;;;;;;5.60;1.40;;;;;;;30.22;24.06;101496.88;109280;1257;74949;-75
2023/10/05 11:13:37;;;;;;;4.00;1.50;;;;;;;29.85;24.72;101492.46;109576;1253;63793;-80
2023/10/05 11:16:09;;;;;;;5.40;1.70;;;;;;;29.58;25.01;101486.75;109325;1254;72118;-75
2023/10/05 11:19:14;;;;;;;6.30;1.60;;;;;;;29.17;25.10;101489.73;109511;1252;59376;-76
2023/10/05 11:22:04;;;;;;;8.70;1.60;;;;;;;28.63;25.63;101480.39;109627;1254;61569;-74
2023/10/05 11:24:38;;;;;;;8.40;1.80;;;;;;;28.27;26.01;101477.10;109622;1254;73969;-76
2023/10/05 11:27:14;;;;;;;7.10;1.90;;;;;;;27.77;26.64;101481.87;109578;1253;62212;-73
2023/10/05 11:29:48;;;;;;;2.20;1.50;;;;;;;27.25;27.28;101483.09;109588;1254;72115;-80
2023/10/05 11:32:28;;;;;;;4.80;1.30;;;;;;;26.78;28.07;101484.85;109473;1254;58848;-78
2023/10/05 11:35:28;;;;;;;4.20;1.80;;;;;;;26.43;28.62;101479.28;109459;1253;58068;-73
2023/10/05 11:38:04;;;;;;;3.70;2.00;;;;;;;26.14;29.73;101476.35;109626;1253;73111;-76
2023/10/05 11:40:35;;;;;;;6.20;1.60;;;;;;;25.90;30.17;101478.87;109551;1252;62239;-76
2023/10/05 11:43:06;;;;;;;2.60;1.60;;;;;;;25.60;30.38;101471.08;109689;1254;71200;-74
2023/10/05 11:45:34;;;;;;;6.20;1.70;;;;;;;25.24;31.04;101470.65;109532;1254;58767;-77
2023/10/05 11:48:11;;;;;;;8.80;2.10;;;;;;;25.00;31.72;101471.15;109596;1254;60308;-78
2023/10/05 11:50:52;;;;;;;7.20;2.10;;;;;;;24.76;32.04;101473.84;109481;1257;72392;-76
2023/10/05 11:53:24;;;;;;;5.40;1.80;;;;;;;24.49;32.19;101471.52;109586;1254;63492;-73
2023/10/05 11:55:52;;;;;;;2.70;2.00;;;;;;;24.25;32.36;101474.60;109606;1254;74907;-77
2023/10/05 11:58:23;;;;;;;2.40;1.30;;;;;;;24.01;32.70;101471.53;109655;1254;61111;-75